sensor_id;sensor_type;location;lat;lon;timestamp;P1;durP1;ratioP1;P2;durP2;ratioP2
11598;SDS011;5855;48.840;9.188;2022-09-13T00:01:34;5.72;;;4.03;;
11598;SDS011;5855;48.840;9.188;2022-09-13T00:04:01;4.90;;;4.18;;
11598;SDS011;5855;48.840;9.188;2022-09-13T00:06:28;4.53;;;3.88;;
11598;SDS011;5855;48.840;9.188;2022-09-13T00:08:55;5.68;;;3.80;;
11598;SDS011;5855;48.840;9.188;2022-09-13T00:11:22;4.22;;;3.83;;
11598;SDS011;5855;48.840;9.188;2022-09-13T00:13:52;3.95;;;3.53;;
11598;SDS011;5855;48.840;9.188;2022-09-13T00:16:20;4.68;;;3.60;;
11598;SDS011;5855;48.840;9.188;2022-09-13T00:18:50;5.03;;;3.60;;
11598;SDS011;5855;48.840;9.188;2022-09-13T00:21:18;4.25;;;3.70;;
11598;SDS011;5855;48.840;9.188;2022-09-13T00:23:47;5.00;;;3.72;;
11598;SDS011;5855;48.840;9.188;2022-09-13T00:26:16;4.57;;;3.70;;
11598;SDS011;5855;48.840;9.188;2022-09-13T00:28:47;5.20;;;4.00;;
11598;SDS011;5855;48.840;9.188;2022-09-13T00:31:17;6.57;;;3.83;;
11598;SDS011;5855;48.840;9.188;2022-09-13T00:33:44;4.43;;;4.03;;
11598;SDS011;5855;48.840;9.188;2022-09-13T00:36:11;5.70;;;3.92;;
11598;SDS011;5855;48.840;9.188;2022-09-13T00:38:39;6.43;;;3.80;;
11598;SDS011;5855;48.840;9.188;2022-09-13T00:41:08;6.13;;;4.20;;
11598;SDS011;5855;48.840;9.188;2022-09-13T00:43:39;4.45;;;3.90;;
11598;SDS011;5855;48.840;9.188;2022-09-13T00:46:08;5.93;;;4.22;;
11598;SDS011;5855;48.840;9.188;2022-09-13T00:48:40;5.13;;;4.28;;
11598;SDS011;5855;48.840;9.188;2022-09-13T00:51:07;5.55;;;3.80;;
11598;SDS011;5855;48.840;9.188;2022-09-13T00:53:36;6.82;;;4.30;;
11598;SDS011;5855;48.840;9.188;2022-09-13T00:56:08;4.50;;;4.05;;
11598;SDS011;5855;48.840;9.188;2022-09-13T00:58:40;5.75;;;4.15;;
11598;SDS011;5855;48.840;9.188;2022-09-13T01:01:11;6.50;;;4.07;;
11598;SDS011;5855;48.840;9.188;2022-09-13T01:03:41;5.40;;;4.30;;
11598;SDS011;5855;48.840;9.188;2022-09-13T01:06:10;5.78;;;4.45;;
11598;SDS011;5855;48.840;9.188;2022-09-13T01:08:40;8.85;;;4.50;;
11598;SDS011;5855;48.840;9.188;2022-09-13T01:11:12;5.93;;;4.18;;
11598;SDS011;5855;48.840;9.188;2022-09-13T01:13:44;6.30;;;4.22;;
11598;SDS011;5855;48.840;9.188;2022-09-13T01:16:12;4.95;;;3.90;;
11598;SDS011;5855;48.840;9.188;2022-09-13T01:18:40;5.38;;;4.20;;
11598;SDS011;5855;48.840;9.188;2022-09-13T01:27:24;4.57;;;4.05;;
11598;SDS011;5855;48.840;9.188;2022-09-13T01:33:07;5.32;;;4.18;;
11598;SDS011;5855;48.840;9.188;2022-09-13T01:36:11;5.70;;;4.05;;
11598;SDS011;5855;48.840;9.188;2022-09-13T01:38:57;6.10;;;4.20;;
11598;SDS011;5855;48.840;9.188;2022-09-13T01:41:35;5.55;;;4.10;;
11598;SDS011;5855;48.840;9.188;2022-09-13T01:44:30;5.60;;;4.53;;
11598;SDS011;5855;48.840;9.188;2022-09-13T01:47:11;6.60;;;4.20;;
11598;SDS011;5855;48.840;9.188;2022-09-13T01:49:49;4.53;;;4.13;;
11598;SDS011;5855;48.840;9.188;2022-09-13T01:52:26;5.32;;;4.53;;
11598;SDS011;5855;48.840;9.188;2022-09-13T01:55:02;6.32;;;4.03;;
11598;SDS011;5855;48.840;9.188;2022-09-13T01:57:34;4.40;;;4.00;;
11598;SDS011;5855;48.840;9.188;2022-09-13T02:00:09;5.80;;;4.30;;
11598;SDS011;5855;48.840;9.188;2022-09-13T02:02:41;5.70;;;4.22;;
11598;SDS011;5855;48.840;9.188;2022-09-13T02:05:12;5.63;;;3.92;;
11598;SDS011;5855;48.840;9.188;2022-09-13T02:07:44;7.25;;;4.57;;
11598;SDS011;5855;48.840;9.188;2022-09-13T02:10:24;5.15;;;4.25;;
11598;SDS011;5855;48.840;9.188;2022-09-13T02:12:54;5.95;;;4.13;;
11598;SDS011;5855;48.840;9.188;2022-09-13T02:15:24;5.18;;;4.38;;
11598;SDS011;5855;48.840;9.188;2022-09-13T02:17:58;6.13;;;3.63;;
11598;SDS011;5855;48.840;9.188;2022-09-13T02:20:32;3.92;;;3.35;;
11598;SDS011;5855;48.840;9.188;2022-09-13T02:23:02;4.95;;;3.80;;
11598;SDS011;5855;48.840;9.188;2022-09-13T02:25:31;3.90;;;3.47;;
11598;SDS011;5855;48.840;9.188;2022-09-13T02:28:00;4.93;;;3.55;;
11598;SDS011;5855;48.840;9.188;2022-09-13T02:30:31;4.35;;;3.55;;
11598;SDS011;5855;48.840;9.188;2022-09-13T02:33:02;4.47;;;3.47;;
11598;SDS011;5855;48.840;9.188;2022-09-13T02:35:37;4.75;;;3.80;;
11598;SDS011;5855;48.840;9.188;2022-09-13T02:38:08;4.60;;;3.67;;
11598;SDS011;5855;48.840;9.188;2022-09-13T02:40:41;4.05;;;3.63;;
11598;SDS011;5855;48.840;9.188;2022-09-13T02:43:12;5.35;;;3.72;;
11598;SDS011;5855;48.840;9.188;2022-09-13T02:45:45;4.15;;;3.35;;
11598;SDS011;5855;48.840;9.188;2022-09-13T02:48:19;4.70;;;3.20;;
11598;SDS011;5855;48.840;9.188;2022-09-13T02:50:52;3.70;;;3.35;;
11598;SDS011;5855;48.840;9.188;2022-09-13T02:53:26;3.97;;;3.20;;
11598;SDS011;5855;48.840;9.188;2022-09-13T02:56:01;4.40;;;3.22;;
11598;SDS011;5855;48.840;9.188;2022-09-13T02:58:37;5.32;;;3.35;;
11598;SDS011;5855;48.840;9.188;2022-09-13T03:01:10;3.72;;;3.15;;
11598;SDS011;5855;48.840;9.188;2022-09-13T03:03:39;3.30;;;3.00;;
11598;SDS011;5855;48.840;9.188;2022-09-13T03:06:06;5.43;;;2.97;;
11598;SDS011;5855;48.840;9.188;2022-09-13T03:08:33;3.20;;;2.90;;
11598;SDS011;5855;48.840;9.188;2022-09-13T03:11:02;4.15;;;3.33;;
11598;SDS011;5855;48.840;9.188;2022-09-13T03:13:42;4.15;;;2.90;;
11598;SDS011;5855;48.840;9.188;2022-09-13T03:16:33;3.88;;;3.20;;
11598;SDS011;5855;48.840;9.188;2022-09-13T03:19:13;3.90;;;3.50;;
11598;SDS011;5855;48.840;9.188;2022-09-13T03:21:54;4.82;;;3.15;;
11598;SDS011;5855;48.840;9.188;2022-09-13T03:24:46;3.88;;;3.47;;
11598;SDS011;5855;48.840;9.188;2022-09-13T03:27:21;3.40;;;3.10;;
11598;SDS011;5855;48.840;9.188;2022-09-13T03:29:57;5.18;;;3.70;;
11598;SDS011;5855;48.840;9.188;2022-09-13T03:32:30;3.55;;;3.20;;
11598;SDS011;5855;48.840;9.188;2022-09-13T03:35:05;5.07;;;3.60;;
11598;SDS011;5855;48.840;9.188;2022-09-13T03:37:40;4.53;;;3.47;;
11598;SDS011;5855;48.840;9.188;2022-09-13T03:40:13;4.00;;;3.60;;
11598;SDS011;5855;48.840;9.188;2022-09-13T03:42:45;4.60;;;3.70;;
11598;SDS011;5855;48.840;9.188;2022-09-13T03:45:15;6.13;;;3.80;;
11598;SDS011;5855;48.840;9.188;2022-09-13T03:47:47;5.50;;;3.55;;
11598;SDS011;5855;48.840;9.188;2022-09-13T03:50:17;5.15;;;3.88;;
11598;SDS011;5855;48.840;9.188;2022-09-13T03:52:47;4.25;;;3.80;;
11598;SDS011;5855;48.840;9.188;2022-09-13T03:55:20;5.25;;;3.80;;
11598;SDS011;5855;48.840;9.188;2022-09-13T03:57:47;7.43;;;4.30;;
11598;SDS011;5855;48.840;9.188;2022-09-13T04:00:14;6.65;;;4.25;;
11598;SDS011;5855;48.840;9.188;2022-09-13T04:02:43;7.55;;;4.22;;
11598;SDS011;5855;48.840;9.188;2022-09-13T04:05:09;5.82;;;3.92;;
11598;SDS011;5855;48.840;9.188;2022-09-13T04:07:38;5.78;;;4.53;;
11598;SDS011;5855;48.840;9.188;2022-09-13T04:10:05;5.72;;;4.45;;
11598;SDS011;5855;48.840;9.188;2022-09-13T04:12:32;5.78;;;4.22;;
11598;SDS011;5855;48.840;9.188;2022-09-13T04:14:59;4.88;;;4.22;;
11598;SDS011;5855;48.840;9.188;2022-09-13T04:17:26;5.22;;;4.40;;
11598;SDS011;5855;48.840;9.188;2022-09-13T04:19:53;5.38;;;4.10;;
11598;SDS011;5855;48.840;9.188;2022-09-13T04:22:20;5.53;;;4.38;;
11598;SDS011;5855;48.840;9.188;2022-09-13T04:24:48;8.27;;;4.68;;
11598;SDS011;5855;48.840;9.188;2022-09-13T04:27:17;4.60;;;4.10;;
11598;SDS011;5855;48.840;9.188;2022-09-13T04:29:44;8.93;;;4.65;;
11598;SDS011;5855;48.840;9.188;2022-09-13T04:32:10;7.20;;;4.22;;
11598;SDS011;5855;48.840;9.188;2022-09-13T04:34:37;5.05;;;3.80;;
11598;SDS011;5855;48.840;9.188;2022-09-13T04:37:04;5.25;;;3.90;;
11598;SDS011;5855;48.840;9.188;2022-09-13T04:39:31;5.15;;;4.03;;
11598;SDS011;5855;48.840;9.188;2022-09-13T04:41:59;4.78;;;3.72;;
11598;SDS011;5855;48.840;9.188;2022-09-13T04:44:26;5.68;;;3.63;;
11598;SDS011;5855;48.840;9.188;2022-09-13T04:46:53;6.63;;;3.88;;
11598;SDS011;5855;48.840;9.188;2022-09-13T04:49:20;5.20;;;3.75;;
11598;SDS011;5855;48.840;9.188;2022-09-13T04:51:47;6.70;;;3.97;;
11598;SDS011;5855;48.840;9.188;2022-09-13T04:54:14;5.60;;;4.18;;
11598;SDS011;5855;48.840;9.188;2022-09-13T04:56:42;6.00;;;4.28;;
11598;SDS011;5855;48.840;9.188;2022-09-13T04:59:11;5.75;;;3.67;;
11598;SDS011;5855;48.840;9.188;2022-09-13T05:01:38;6.10;;;2.92;;
11598;SDS011;5855;48.840;9.188;2022-09-13T05:04:05;6.00;;;3.40;;
11598;SDS011;5855;48.840;9.188;2022-09-13T05:06:33;3.38;;;3.08;;
11598;SDS011;5855;48.840;9.188;2022-09-13T05:09:00;4.65;;;3.10;;
11598;SDS011;5855;48.840;9.188;2022-09-13T05:11:28;4.50;;;2.72;;
11598;SDS011;5855;48.840;9.188;2022-09-13T05:13:55;3.72;;;3.13;;
11598;SDS011;5855;48.840;9.188;2022-09-13T05:16:25;4.20;;;3.00;;
11598;SDS011;5855;48.840;9.188;2022-09-13T05:18:52;6.80;;;3.47;;
11598;SDS011;5855;48.840;9.188;2022-09-13T05:21:21;4.38;;;3.13;;
11598;SDS011;5855;48.840;9.188;2022-09-13T05:23:48;4.47;;;3.30;;
11598;SDS011;5855;48.840;9.188;2022-09-13T05:26:15;3.83;;;3.00;;
11598;SDS011;5855;48.840;9.188;2022-09-13T05:28:42;4.40;;;3.40;;
11598;SDS011;5855;48.840;9.188;2022-09-13T05:31:11;5.57;;;3.50;;
11598;SDS011;5855;48.840;9.188;2022-09-13T05:33:42;5.10;;;3.20;;
11598;SDS011;5855;48.840;9.188;2022-09-13T05:36:10;3.20;;;2.90;;
11598;SDS011;5855;48.840;9.188;2022-09-13T05:38:37;4.28;;;3.15;;
11598;SDS011;5855;48.840;9.188;2022-09-13T05:41:04;5.65;;;3.50;;
11598;SDS011;5855;48.840;9.188;2022-09-13T05:43:32;5.43;;;3.55;;
11598;SDS011;5855;48.840;9.188;2022-09-13T05:46:00;6.10;;;3.63;;
11598;SDS011;5855;48.840;9.188;2022-09-13T05:48:28;4.05;;;3.40;;
11598;SDS011;5855;48.840;9.188;2022-09-13T05:50:56;9.27;;;3.72;;
11598;SDS011;5855;48.840;9.188;2022-09-13T05:53:31;6.55;;;3.88;;
11598;SDS011;5855;48.840;9.188;2022-09-13T05:55:57;5.38;;;3.50;;
11598;SDS011;5855;48.840;9.188;2022-09-13T05:58:24;6.72;;;3.97;;
11598;SDS011;5855;48.840;9.188;2022-09-13T06:00:51;5.50;;;3.83;;
11598;SDS011;5855;48.840;9.188;2022-09-13T06:03:19;8.45;;;3.85;;
11598;SDS011;5855;48.840;9.188;2022-09-13T06:05:46;3.97;;;3.20;;
11598;SDS011;5855;48.840;9.188;2022-09-13T06:08:14;6.10;;;3.30;;
11598;SDS011;5855;48.840;9.188;2022-09-13T06:10:41;5.07;;;3.13;;
11598;SDS011;5855;48.840;9.188;2022-09-13T06:13:08;4.07;;;3.30;;
11598;SDS011;5855;48.840;9.188;2022-09-13T06:15:35;4.45;;;3.08;;
11598;SDS011;5855;48.840;9.188;2022-09-13T06:18:02;4.93;;;3.30;;
11598;SDS011;5855;48.840;9.188;2022-09-13T06:20:29;7.03;;;3.28;;
11598;SDS011;5855;48.840;9.188;2022-09-13T06:22:55;3.63;;;3.25;;
11598;SDS011;5855;48.840;9.188;2022-09-13T06:25:24;4.45;;;3.28;;
11598;SDS011;5855;48.840;9.188;2022-09-13T06:27:50;10.32;;;2.90;;
11598;SDS011;5855;48.840;9.188;2022-09-13T06:30:18;3.67;;;3.10;;
11598;SDS011;5855;48.840;9.188;2022-09-13T06:32:45;6.90;;;3.30;;
11598;SDS011;5855;48.840;9.188;2022-09-13T06:35:12;4.07;;;3.10;;
11598;SDS011;5855;48.840;9.188;2022-09-13T06:37:38;7.35;;;3.55;;
11598;SDS011;5855;48.840;9.188;2022-09-13T06:40:05;4.95;;;3.85;;
11598;SDS011;5855;48.840;9.188;2022-09-13T06:42:34;7.20;;;3.50;;
11598;SDS011;5855;48.840;9.188;2022-09-13T06:45:02;7.45;;;3.45;;
11598;SDS011;5855;48.840;9.188;2022-09-13T06:47:29;8.57;;;3.85;;
11598;SDS011;5855;48.840;9.188;2022-09-13T06:49:56;5.18;;;3.75;;
11598;SDS011;5855;48.840;9.188;2022-09-13T06:52:23;7.38;;;3.50;;
11598;SDS011;5855;48.840;9.188;2022-09-13T06:54:50;6.70;;;4.05;;
11598;SDS011;5855;48.840;9.188;2022-09-13T06:57:17;6.97;;;3.90;;
11598;SDS011;5855;48.840;9.188;2022-09-13T06:59:45;7.18;;;3.70;;
11598;SDS011;5855;48.840;9.188;2022-09-13T07:02:12;7.57;;;3.90;;
11598;SDS011;5855;48.840;9.188;2022-09-13T07:04:39;10.57;;;4.10;;
11598;SDS011;5855;48.840;9.188;2022-09-13T07:07:06;6.70;;;3.88;;
11598;SDS011;5855;48.840;9.188;2022-09-13T07:09:33;9.30;;;3.95;;
11598;SDS011;5855;48.840;9.188;2022-09-13T07:12:00;9.40;;;4.18;;
11598;SDS011;5855;48.840;9.188;2022-09-13T07:14:27;7.13;;;3.28;;
11598;SDS011;5855;48.840;9.188;2022-09-13T07:16:56;6.97;;;3.55;;
11598;SDS011;5855;48.840;9.188;2022-09-13T07:19:24;5.22;;;3.30;;
11598;SDS011;5855;48.840;9.188;2022-09-13T07:21:53;6.88;;;3.50;;
11598;SDS011;5855;48.840;9.188;2022-09-13T07:24:21;4.78;;;3.47;;
11598;SDS011;5855;48.840;9.188;2022-09-13T07:26:48;4.53;;;3.30;;
11598;SDS011;5855;48.840;9.188;2022-09-13T07:29:16;4.97;;;3.10;;
11598;SDS011;5855;48.840;9.188;2022-09-13T07:31:44;6.50;;;3.72;;
11598;SDS011;5855;48.840;9.188;2022-09-13T07:34:15;9.63;;;4.15;;
11598;SDS011;5855;48.840;9.188;2022-09-13T07:36:43;6.18;;;3.80;;
11598;SDS011;5855;48.840;9.188;2022-09-13T07:39:11;6.20;;;3.53;;
11598;SDS011;5855;48.840;9.188;2022-09-13T07:41:38;5.72;;;3.47;;
11598;SDS011;5855;48.840;9.188;2022-09-13T07:44:05;5.10;;;2.95;;
11598;SDS011;5855;48.840;9.188;2022-09-13T07:46:33;8.02;;;3.45;;
11598;SDS011;5855;48.840;9.188;2022-09-13T07:49:04;6.18;;;3.28;;
11598;SDS011;5855;48.840;9.188;2022-09-13T07:51:33;5.07;;;2.67;;
11598;SDS011;5855;48.840;9.188;2022-09-13T07:54:01;4.80;;;3.00;;
11598;SDS011;5855;48.840;9.188;2022-09-13T07:56:30;7.63;;;3.22;;
11598;SDS011;5855;48.840;9.188;2022-09-13T07:58:59;4.50;;;3.55;;
11598;SDS011;5855;48.840;9.188;2022-09-13T08:01:28;5.53;;;3.40;;
11598;SDS011;5855;48.840;9.188;2022-09-13T08:03:59;7.60;;;3.15;;
11598;SDS011;5855;48.840;9.188;2022-09-13T08:06:28;4.10;;;2.90;;
11598;SDS011;5855;48.840;9.188;2022-09-13T08:08:57;7.40;;;3.00;;
11598;SDS011;5855;48.840;9.188;2022-09-13T08:11:26;12.52;;;4.90;;
11598;SDS011;5855;48.840;9.188;2022-09-13T08:13:55;6.45;;;3.38;;
11598;SDS011;5855;48.840;9.188;2022-09-13T08:16:22;3.92;;;2.88;;
11598;SDS011;5855;48.840;9.188;2022-09-13T08:18:51;4.95;;;2.95;;
11598;SDS011;5855;48.840;9.188;2022-09-13T08:21:20;4.32;;;3.17;;
11598;SDS011;5855;48.840;9.188;2022-09-13T08:23:47;4.90;;;2.72;;
11598;SDS011;5855;48.840;9.188;2022-09-13T08:26:15;8.32;;;2.90;;
11598;SDS011;5855;48.840;9.188;2022-09-13T08:28:42;7.20;;;3.22;;
11598;SDS011;5855;48.840;9.188;2022-09-13T08:31:10;5.18;;;2.78;;
11598;SDS011;5855;48.840;9.188;2022-09-13T08:33:41;4.68;;;2.80;;
11598;SDS011;5855;48.840;9.188;2022-09-13T08:36:08;4.72;;;2.75;;
11598;SDS011;5855;48.840;9.188;2022-09-13T08:38:35;6.40;;;2.70;;
11598;SDS011;5855;48.840;9.188;2022-09-13T08:41:03;5.18;;;2.60;;
11598;SDS011;5855;48.840;9.188;2022-09-13T08:43:45;6.95;;;2.60;;
11598;SDS011;5855;48.840;9.188;2022-09-13T08:46:18;5.35;;;2.70;;
11598;SDS011;5855;48.840;9.188;2022-09-13T08:48:50;8.02;;;2.70;;
11598;SDS011;5855;48.840;9.188;2022-09-13T08:54:07;5.53;;;2.55;;
11598;SDS011;5855;48.840;9.188;2022-09-13T08:56:37;4.07;;;2.22;;
11598;SDS011;5855;48.840;9.188;2022-09-13T08:59:21;3.78;;;2.20;;
11598;SDS011;5855;48.840;9.188;2022-09-13T09:01:57;3.97;;;2.00;;
11598;SDS011;5855;48.840;9.188;2022-09-13T09:04:38;3.33;;;2.17;;
11598;SDS011;5855;48.840;9.188;2022-09-13T09:07:11;5.30;;;2.10;;
11598;SDS011;5855;48.840;9.188;2022-09-13T09:09:43;4.43;;;2.15;;
11598;SDS011;5855;48.840;9.188;2022-09-13T09:12:19;3.53;;;2.10;;
11598;SDS011;5855;48.840;9.188;2022-09-13T09:14:58;4.10;;;1.90;;
11598;SDS011;5855;48.840;9.188;2022-09-13T09:17:31;4.53;;;2.15;;
11598;SDS011;5855;48.840;9.188;2022-09-13T09:20:13;2.92;;;1.98;;
11598;SDS011;5855;48.840;9.188;2022-09-13T09:22:47;2.60;;;1.80;;
11598;SDS011;5855;48.840;9.188;2022-09-13T09:25:16;2.63;;;1.60;;
11598;SDS011;5855;48.840;9.188;2022-09-13T09:27:43;3.53;;;1.65;;
11598;SDS011;5855;48.840;9.188;2022-09-13T09:30:13;2.47;;;1.60;;
11598;SDS011;5855;48.840;9.188;2022-09-13T09:32:51;2.90;;;1.50;;
11598;SDS011;5855;48.840;9.188;2022-09-13T09:35:44;3.65;;;1.50;;
11598;SDS011;5855;48.840;9.188;2022-09-13T09:38:32;3.28;;;1.33;;
11598;SDS011;5855;48.840;9.188;2022-09-13T09:41:04;1.73;;;1.40;;
11598;SDS011;5855;48.840;9.188;2022-09-13T09:43:37;4.95;;;1.45;;
11598;SDS011;5855;48.840;9.188;2022-09-13T09:46:09;5.25;;;1.30;;
11598;SDS011;5855;48.840;9.188;2022-09-13T09:48:40;1.70;;;1.20;;
11598;SDS011;5855;48.840;9.188;2022-09-13T09:51:11;4.95;;;1.67;;
11598;SDS011;5855;48.840;9.188;2022-09-13T09:53:40;3.75;;;1.38;;
11598;SDS011;5855;48.840;9.188;2022-09-13T09:56:14;2.05;;;1.30;;
11598;SDS011;5855;48.840;9.188;2022-09-13T09:58:47;3.40;;;1.55;;
11598;SDS011;5855;48.840;9.188;2022-09-13T10:01:20;1.77;;;1.30;;
11598;SDS011;5855;48.840;9.188;2022-09-13T10:03:50;1.95;;;1.30;;
11598;SDS011;5855;48.840;9.188;2022-09-13T10:06:23;3.20;;;1.65;;
11598;SDS011;5855;48.840;9.188;2022-09-13T10:08:56;1.90;;;1.20;;
11598;SDS011;5855;48.840;9.188;2022-09-13T10:11:38;3.55;;;1.40;;
11598;SDS011;5855;48.840;9.188;2022-09-13T10:17:05;6.35;;;1.60;;
11598;SDS011;5855;48.840;9.188;2022-09-13T10:19:49;2.08;;;1.45;;
11598;SDS011;5855;48.840;9.188;2022-09-13T10:22:19;3.65;;;1.40;;
11598;SDS011;5855;48.840;9.188;2022-09-13T10:24:47;2.30;;;1.25;;
11598;SDS011;5855;48.840;9.188;2022-09-13T10:27:18;1.30;;;1.20;;
11598;SDS011;5855;48.840;9.188;2022-09-13T10:29:55;3.10;;;1.20;;
11598;SDS011;5855;48.840;9.188;2022-09-13T10:32:27;1.60;;;1.10;;
11598;SDS011;5855;48.840;9.188;2022-09-13T10:34:55;2.03;;;1.20;;
11598;SDS011;5855;48.840;9.188;2022-09-13T10:37:41;2.60;;;1.10;;
11598;SDS011;5855;48.840;9.188;2022-09-13T10:40:15;2.30;;;1.30;;
11598;SDS011;5855;48.840;9.188;2022-09-13T10:42:49;2.05;;;1.20;;
11598;SDS011;5855;48.840;9.188;2022-09-13T10:45:19;1.80;;;1.10;;
11598;SDS011;5855;48.840;9.188;2022-09-13T10:47:50;1.20;;;1.10;;
11598;SDS011;5855;48.840;9.188;2022-09-13T10:50:20;1.60;;;1.10;;
11598;SDS011;5855;48.840;9.188;2022-09-13T10:52:48;1.20;;;1.10;;
11598;SDS011;5855;48.840;9.188;2022-09-13T10:55:23;3.20;;;1.10;;
11598;SDS011;5855;48.840;9.188;2022-09-13T10:57:52;1.35;;;0.90;;
11598;SDS011;5855;48.840;9.188;2022-09-13T11:00:21;1.20;;;1.00;;
11598;SDS011;5855;48.840;9.188;2022-09-13T11:03:00;0.88;;;0.60;;
11598;SDS011;5855;48.840;9.188;2022-09-13T11:05:38;1.00;;;0.60;;
11598;SDS011;5855;48.840;9.188;2022-09-13T11:08:19;0.82;;;0.70;;
11598;SDS011;5855;48.840;9.188;2022-09-13T11:11:01;0.80;;;0.80;;
11598;SDS011;5855;48.840;9.188;2022-09-13T11:13:38;1.90;;;0.80;;
11598;SDS011;5855;48.840;9.188;2022-09-13T11:16:22;0.98;;;0.88;;
11598;SDS011;5855;48.840;9.188;2022-09-13T11:19:07;2.05;;;0.65;;
11598;SDS011;5855;48.840;9.188;2022-09-13T11:21:47;2.50;;;0.80;;
11598;SDS011;5855;48.840;9.188;2022-09-13T11:24:33;1.45;;;0.60;;
11598;SDS011;5855;48.840;9.188;2022-09-13T11:27:13;0.68;;;0.68;;
11598;SDS011;5855;48.840;9.188;2022-09-13T11:29:53;1.70;;;0.88;;
11598;SDS011;5855;48.840;9.188;2022-09-13T11:32:33;0.98;;;0.75;;
11598;SDS011;5855;48.840;9.188;2022-09-13T11:35:24;0.70;;;0.70;;
11598;SDS011;5855;48.840;9.188;2022-09-13T11:38:14;3.08;;;0.60;;
11598;SDS011;5855;48.840;9.188;2022-09-13T11:40:54;1.40;;;0.70;;
11598;SDS011;5855;48.840;9.188;2022-09-13T11:43:38;1.13;;;0.50;;
11598;SDS011;5855;48.840;9.188;2022-09-13T11:46:19;1.08;;;0.70;;
11598;SDS011;5855;48.840;9.188;2022-09-13T11:49:17;1.15;;;0.60;;
11598;SDS011;5855;48.840;9.188;2022-09-13T11:52:14;0.95;;;0.73;;
11598;SDS011;5855;48.840;9.188;2022-09-13T11:54:56;0.52;;;0.50;;
11598;SDS011;5855;48.840;9.188;2022-09-13T11:57:30;1.67;;;0.73;;
11598;SDS011;5855;48.840;9.188;2022-09-13T12:00:01;1.75;;;0.57;;
11598;SDS011;5855;48.840;9.188;2022-09-13T12:02:33;4.60;;;0.90;;
11598;SDS011;5855;48.840;9.188;2022-09-13T12:05:08;1.02;;;0.73;;
11598;SDS011;5855;48.840;9.188;2022-09-13T12:07:43;1.75;;;0.68;;
11598;SDS011;5855;48.840;9.188;2022-09-13T12:10:14;5.13;;;1.17;;
11598;SDS011;5855;48.840;9.188;2022-09-13T12:12:45;0.68;;;0.50;;
11598;SDS011;5855;48.840;9.188;2022-09-13T12:15:16;1.38;;;0.63;;
11598;SDS011;5855;48.840;9.188;2022-09-13T12:17:47;2.50;;;0.60;;
11598;SDS011;5855;48.840;9.188;2022-09-13T12:20:19;0.60;;;0.50;;
11598;SDS011;5855;48.840;9.188;2022-09-13T12:22:54;1.10;;;0.60;;
11598;SDS011;5855;48.840;9.188;2022-09-13T12:25:27;0.75;;;0.60;;
11598;SDS011;5855;48.840;9.188;2022-09-13T12:28:03;0.70;;;0.60;;
11598;SDS011;5855;48.840;9.188;2022-09-13T12:30:39;0.63;;;0.60;;
11598;SDS011;5855;48.840;9.188;2022-09-13T12:33:11;0.60;;;0.60;;
11598;SDS011;5855;48.840;9.188;2022-09-13T12:35:42;1.63;;;0.80;;
11598;SDS011;5855;48.840;9.188;2022-09-13T12:38:23;0.70;;;0.70;;
11598;SDS011;5855;48.840;9.188;2022-09-13T12:50:07;0.52;;;0.50;;
11598;SDS011;5855;48.840;9.188;2022-09-13T12:52:58;2.05;;;0.70;;
11598;SDS011;5855;48.840;9.188;2022-09-13T12:55:45;0.80;;;0.80;;
11598;SDS011;5855;48.840;9.188;2022-09-13T12:58:26;1.17;;;0.82;;
11598;SDS011;5855;48.840;9.188;2022-09-13T13:01:11;0.85;;;0.60;;
11598;SDS011;5855;48.840;9.188;2022-09-13T13:03:43;0.95;;;0.50;;
11598;SDS011;5855;48.840;9.188;2022-09-13T13:06:20;0.52;;;0.50;;
11598;SDS011;5855;48.840;9.188;2022-09-13T13:08:53;1.30;;;0.60;;
11598;SDS011;5855;48.840;9.188;2022-09-13T13:11:25;0.57;;;0.52;;
11598;SDS011;5855;48.840;9.188;2022-09-13T13:13:54;0.95;;;0.85;;
11598;SDS011;5855;48.840;9.188;2022-09-13T13:16:24;0.60;;;0.60;;
11598;SDS011;5855;48.840;9.188;2022-09-13T13:18:53;1.15;;;0.60;;
11598;SDS011;5855;48.840;9.188;2022-09-13T13:21:32;0.60;;;0.60;;
11598;SDS011;5855;48.840;9.188;2022-09-13T13:33:17;1.38;;;0.70;;
11598;SDS011;5855;48.840;9.188;2022-09-13T13:35:46;1.25;;;0.70;;
11598;SDS011;5855;48.840;9.188;2022-09-13T13:38:14;1.75;;;0.60;;
11598;SDS011;5855;48.840;9.188;2022-09-13T13:41:04;0.75;;;0.65;;
11598;SDS011;5855;48.840;9.188;2022-09-13T13:43:34;0.93;;;0.57;;
11598;SDS011;5855;48.840;9.188;2022-09-13T13:48:52;1.15;;;0.70;;
11598;SDS011;5855;48.840;9.188;2022-09-13T13:51:21;0.68;;;0.50;;
11598;SDS011;5855;48.840;9.188;2022-09-13T13:53:51;0.95;;;0.70;;
11598;SDS011;5855;48.840;9.188;2022-09-13T13:56:28;0.57;;;0.50;;
11598;SDS011;5855;48.840;9.188;2022-09-13T13:59:12;0.75;;;0.50;;
11598;SDS011;5855;48.840;9.188;2022-09-13T14:01:52;0.88;;;0.60;;
11598;SDS011;5855;48.840;9.188;2022-09-13T14:04:47;1.15;;;0.40;;
11598;SDS011;5855;48.840;9.188;2022-09-13T14:10:23;0.88;;;0.68;;
11598;SDS011;5855;48.840;9.188;2022-09-13T14:12:59;1.10;;;0.63;;
11598;SDS011;5855;48.840;9.188;2022-09-13T14:15:45;0.90;;;0.60;;
11598;SDS011;5855;48.840;9.188;2022-09-13T14:18:26;3.38;;;0.40;;
11598;SDS011;5855;48.840;9.188;2022-09-13T14:21:17;0.77;;;0.55;;
11598;SDS011;5855;48.840;9.188;2022-09-13T14:23:49;0.85;;;0.70;;
11598;SDS011;5855;48.840;9.188;2022-09-13T14:26:17;1.67;;;0.73;;
11598;SDS011;5855;48.840;9.188;2022-09-13T14:28:44;1.90;;;0.57;;
11598;SDS011;5855;48.840;9.188;2022-09-13T14:31:16;2.13;;;0.68;;
11598;SDS011;5855;48.840;9.188;2022-09-13T14:33:45;0.57;;;0.57;;
11598;SDS011;5855;48.840;9.188;2022-09-13T14:36:16;0.95;;;0.60;;
11598;SDS011;5855;48.840;9.188;2022-09-13T14:38:47;0.70;;;0.50;;
11598;SDS011;5855;48.840;9.188;2022-09-13T14:41:16;1.30;;;0.57;;
11598;SDS011;5855;48.840;9.188;2022-09-13T14:43:45;1.50;;;0.68;;
11598;SDS011;5855;48.840;9.188;2022-09-13T14:46:14;1.63;;;0.40;;
11598;SDS011;5855;48.840;9.188;2022-09-13T14:48:47;0.95;;;0.60;;
11598;SDS011;5855;48.840;9.188;2022-09-13T14:51:17;0.50;;;0.50;;
11598;SDS011;5855;48.840;9.188;2022-09-13T14:53:48;1.17;;;0.40;;
11598;SDS011;5855;48.840;9.188;2022-09-13T14:56:18;0.30;;;0.28;;
11598;SDS011;5855;48.840;9.188;2022-09-13T14:58:53;1.00;;;0.50;;
11598;SDS011;5855;48.840;9.188;2022-09-13T15:01:27;0.30;;;0.30;;
11598;SDS011;5855;48.840;9.188;2022-09-13T15:03:56;2.05;;;0.30;;
11598;SDS011;5855;48.840;9.188;2022-09-13T15:06:25;0.75;;;0.38;;
11598;SDS011;5855;48.840;9.188;2022-09-13T15:08:55;0.65;;;0.50;;
11598;SDS011;5855;48.840;9.188;2022-09-13T15:11:28;1.52;;;0.60;;
11598;SDS011;5855;48.840;9.188;2022-09-13T15:14:01;0.47;;;0.40;;
11598;SDS011;5855;48.840;9.188;2022-09-13T15:16:46;0.52;;;0.50;;
11598;SDS011;5855;48.840;9.188;2022-09-13T15:19:15;1.40;;;0.50;;
11598;SDS011;5855;48.840;9.188;2022-09-13T15:21:51;0.50;;;0.50;;
11598;SDS011;5855;48.840;9.188;2022-09-13T15:24:20;0.40;;;0.40;;
11598;SDS011;5855;48.840;9.188;2022-09-13T15:26:59;0.65;;;0.40;;
11598;SDS011;5855;48.840;9.188;2022-09-13T15:29:27;3.72;;;0.60;;
11598;SDS011;5855;48.840;9.188;2022-09-13T15:32:00;1.17;;;0.47;;
11598;SDS011;5855;48.840;9.188;2022-09-13T15:34:27;0.40;;;0.38;;
11598;SDS011;5855;48.840;9.188;2022-09-13T15:37:07;0.60;;;0.50;;
11598;SDS011;5855;48.840;9.188;2022-09-13T15:39:43;1.08;;;0.50;;
11598;SDS011;5855;48.840;9.188;2022-09-13T15:42:11;0.50;;;0.50;;
11598;SDS011;5855;48.840;9.188;2022-09-13T15:44:39;3.70;;;0.70;;
11598;SDS011;5855;48.840;9.188;2022-09-13T15:47:09;1.08;;;0.60;;
11598;SDS011;5855;48.840;9.188;2022-09-13T15:49:37;2.45;;;0.70;;
11598;SDS011;5855;48.840;9.188;2022-09-13T15:52:05;0.52;;;0.45;;
11598;SDS011;5855;48.840;9.188;2022-09-13T15:54:34;5.55;;;0.60;;
11598;SDS011;5855;48.840;9.188;2022-09-13T15:57:05;1.05;;;0.57;;
11598;SDS011;5855;48.840;9.188;2022-09-13T15:59:34;3.20;;;0.82;;
11598;SDS011;5855;48.840;9.188;2022-09-13T16:02:01;1.90;;;0.70;;
11598;SDS011;5855;48.840;9.188;2022-09-13T16:04:43;1.35;;;0.70;;
11598;SDS011;5855;48.840;9.188;2022-09-13T16:07:09;1.08;;;0.70;;
11598;SDS011;5855;48.840;9.188;2022-09-13T16:09:36;3.25;;;0.82;;